TPC346 KFSD-CYYR
Flight info
| Callsign | TPC346 |
|---|---|
| Flight time | N/A |
| Altitude | 18000 |
| Route | FSD J114 GEP DCT SSM DCT LIBUT DCT OMTOL DCT BORUB DCT YYR |
| Aircraft | DA42/L-SBDGRY/S |
Departure
| Time | 2026-04-26 13:37 |
|---|---|
| Airport | Sioux Falls Regional Airport (KFSD) |
Arrival
| Time | N/A |
|---|---|
| Airport | Goose Bay Airport (CYYR) |
| Time | Latitude | Longitude | Altitude | Speed | Heading |
|---|---|---|---|---|---|
| 2026-04-26 13:37 | 43.65155 | -96.77463 | 5195 ft | 94 kts | 40° |
| 2026-04-26 13:37 | 43.65571 | -96.76781 | 5447 ft | 94 kts | 61° |
| 2026-04-26 13:37 | 43.65934 | -96.76009 | 5681 ft | 98 kts | 60° |
| 2026-04-26 13:37 | 43.66306 | -96.75207 | 5935 ft | 100 kts | 59° |
| 2026-04-26 13:38 | 43.66688 | -96.74383 | 6180 ft | 103 kts | 60° |
| 2026-04-26 13:38 | 43.67081 | -96.73537 | 6436 ft | 106 kts | 60° |
| 2026-04-26 13:38 | 43.67485 | -96.72665 | 6671 ft | 109 kts | 59° |
| 2026-04-26 13:38 | 43.67895 | -96.71782 | 6922 ft | 110 kts | 61° |
| 2026-04-26 13:39 | 43.68304 | -96.70899 | 7192 ft | 109 kts | 62° |
| 2026-04-26 13:39 | 43.68722 | -96.70000 | 7415 ft | 113 kts | 61° |
| 2026-04-26 13:39 | 43.69154 | -96.69066 | 7647 ft | 116 kts | 63° |
| 2026-04-26 13:39 | 43.69588 | -96.68131 | 7919 ft | 116 kts | 61° |
| 2026-04-26 13:40 | 43.70021 | -96.67198 | 8192 ft | 115 kts | 62° |
| 2026-04-26 13:40 | 43.70458 | -96.66254 | 8445 ft | 117 kts | 63° |
| 2026-04-26 13:40 | 43.70901 | -96.65298 | 8702 ft | 119 kts | 63° |
| 2026-04-26 13:40 | 43.71348 | -96.64336 | 8981 ft | 119 kts | 63° |
| 2026-04-26 13:41 | 43.71793 | -96.63375 | 9244 ft | 119 kts | 63° |
| 2026-04-26 13:41 | 43.72242 | -96.62404 | 9514 ft | 120 kts | 63° |
| 2026-04-26 13:41 | 43.72695 | -96.61426 | 9782 ft | 121 kts | 63° |
| 2026-04-26 13:41 | 43.73154 | -96.60435 | 10041 ft | 123 kts | 63° |
| 2026-04-26 13:42 | 43.73615 | -96.59437 | 10284 ft | 124 kts | 63° |
| 2026-04-26 13:42 | 43.74080 | -96.58431 | 10525 ft | 125 kts | 63° |
| 2026-04-26 13:42 | 43.74551 | -96.57414 | 10765 ft | 126 kts | 63° |
| 2026-04-26 13:42 | 43.75023 | -96.56391 | 11005 ft | 127 kts | 63° |
| 2026-04-26 13:43 | 43.75499 | -96.55360 | 11248 ft | 127 kts | 63° |
| 2026-04-26 13:43 | 43.75977 | -96.54328 | 11503 ft | 128 kts | 63° |
| 2026-04-26 13:43 | 43.76457 | -96.53287 | 11756 ft | 129 kts | 63° |
| 2026-04-26 13:43 | 43.76940 | -96.52240 | 12009 ft | 130 kts | 63° |
| 2026-04-26 13:44 | 43.77427 | -96.51184 | 12258 ft | 131 kts | 63° |
| 2026-04-26 13:44 | 43.77917 | -96.50122 | 12501 ft | 131 kts | 63° |
| 2026-04-26 13:44 | 43.78409 | -96.49054 | 12740 ft | 132 kts | 63° |
| 2026-04-26 13:44 | 43.78906 | -96.47975 | 12976 ft | 133 kts | 63° |
| 2026-04-26 13:45 | 43.79406 | -96.46890 | 13213 ft | 134 kts | 63° |
| 2026-04-26 13:45 | 43.79901 | -96.45816 | 13434 ft | 134 kts | 63° |
| 2026-04-26 13:45 | 43.80401 | -96.44728 | 13666 ft | 134 kts | 63° |
| 2026-04-26 13:45 | 43.80904 | -96.43635 | 13902 ft | 135 kts | 63° |
| 2026-04-26 13:46 | 43.81410 | -96.42534 | 14111 ft | 136 kts | 63° |
| 2026-04-26 13:46 | 43.81919 | -96.41427 | 14322 ft | 137 kts | 63° |
| 2026-04-26 13:46 | 43.82431 | -96.40313 | 14545 ft | 137 kts | 62° |
| 2026-04-26 13:46 | 43.82946 | -96.39193 | 14774 ft | 138 kts | 62° |
| 2026-04-26 13:47 | 43.83463 | -96.38066 | 14997 ft | 139 kts | 62° |
| 2026-04-26 13:47 | 43.83985 | -96.36931 | 15215 ft | 140 kts | 62° |
| 2026-04-26 13:47 | 43.84510 | -96.35785 | 15443 ft | 141 kts | 61° |
| 2026-04-26 13:47 | 43.85036 | -96.34638 | 15665 ft | 142 kts | 61° |
| 2026-04-26 13:48 | 43.85568 | -96.33479 | 15895 ft | 143 kts | 61° |
| 2026-04-26 13:48 | 43.86102 | -96.32312 | 16103 ft | 144 kts | 60° |
| 2026-04-26 13:48 | 43.86640 | -96.31139 | 16333 ft | 144 kts | 60° |
| 2026-04-26 13:48 | 43.87173 | -96.29976 | 16563 ft | 145 kts | 60° |
| 2026-04-26 13:49 | 43.87713 | -96.28795 | 16788 ft | 146 kts | 59° |
| 2026-04-26 13:49 | 43.88258 | -96.27604 | 17016 ft | 146 kts | 59° |
| 2026-04-26 13:49 | 43.88804 | -96.26410 | 17248 ft | 147 kts | 59° |
| 2026-04-26 13:49 | 43.89354 | -96.25207 | 17483 ft | 148 kts | 59° |
| 2026-04-26 13:50 | 43.89907 | -96.23998 | 17722 ft | 149 kts | 58° |
| 2026-04-26 13:50 | 43.90461 | -96.22784 | 17963 ft | 149 kts | 58° |
| 2026-04-26 13:50 | 43.91017 | -96.21566 | 18198 ft | 150 kts | 58° |
| 2026-04-26 13:50 | 43.91576 | -96.20341 | 18424 ft | 151 kts | 58° |
| 2026-04-26 13:51 | 43.92139 | -96.19108 | 18618 ft | 152 kts | 57° |
| 2026-04-26 13:51 | 43.92707 | -96.17863 | 18812 ft | 153 kts | 57° |
| 2026-04-26 13:51 | 43.93278 | -96.16609 | 19010 ft | 155 kts | 57° |
| 2026-04-26 13:51 | 43.93855 | -96.15344 | 19207 ft | 156 kts | 57° |
| 2026-04-26 13:52 | 43.94436 | -96.14067 | 19399 ft | 157 kts | 57° |
| 2026-04-26 13:52 | 43.95022 | -96.12781 | 19597 ft | 158 kts | 57° |
| 2026-04-26 13:52 | 43.95612 | -96.11482 | 19791 ft | 160 kts | 57° |
| 2026-04-26 13:52 | 43.96208 | -96.10173 | 19990 ft | 161 kts | 57° |
| 2026-04-26 13:53 | 43.96807 | -96.08856 | 20184 ft | 162 kts | 57° |
| 2026-04-26 13:53 | 43.97413 | -96.07522 | 20367 ft | 164 kts | 56° |
| 2026-04-26 13:53 | 43.98026 | -96.06174 | 20562 ft | 166 kts | 56° |
| 2026-04-26 13:53 | 43.98643 | -96.04813 | 20753 ft | 167 kts | 56° |
| 2026-04-26 13:54 | 43.99265 | -96.03444 | 20947 ft | 168 kts | 56° |
| 2026-04-26 13:54 | 43.99890 | -96.02065 | 21135 ft | 169 kts | 55° |
| 2026-04-26 13:54 | 44.00519 | -96.00677 | 21316 ft | 170 kts | 55° |
| 2026-04-26 13:55 | 44.01783 | -95.97887 | 21674 ft | 173 kts | 55° |
| 2026-04-26 13:55 | 44.02216 | -95.96932 | 21797 ft | 173 kts | 54° |
| 2026-04-26 13:55 | 44.03720 | -95.93608 | 22205 ft | 176 kts | 54° |
| 2026-04-26 13:56 | 44.04372 | -95.92165 | 22376 ft | 177 kts | 54° |
| 2026-04-26 13:56 | 44.05028 | -95.90712 | 22541 ft | 178 kts | 54° |
| 2026-04-26 13:56 | 44.05687 | -95.89254 | 22707 ft | 179 kts | 54° |
| 2026-04-26 13:56 | 44.06350 | -95.87784 | 22864 ft | 180 kts | 54° |
| 2026-04-26 13:57 | 44.07018 | -95.86304 | 23028 ft | 181 kts | 54° |
| 2026-04-26 13:57 | 44.07688 | -95.84819 | 23204 ft | 182 kts | 53° |
| 2026-04-26 13:57 | 44.08365 | -95.83316 | 23350 ft | 185 kts | 53° |
| 2026-04-26 13:57 | 44.09048 | -95.81800 | 23518 ft | 186 kts | 53° |
| 2026-04-26 13:58 | 44.09735 | -95.80273 | 23689 ft | 186 kts | 53° |
| 2026-04-26 13:58 | 44.10425 | -95.78739 | 23838 ft | 187 kts | 53° |
| 2026-04-26 13:58 | 44.11116 | -95.77202 | 23977 ft | 188 kts | 53° |
| 2026-04-26 13:58 | 44.11809 | -95.75660 | 24120 ft | 188 kts | 53° |
| 2026-04-26 13:59 | 44.12502 | -95.74117 | 24257 ft | 188 kts | 53° |
| 2026-04-26 13:59 | 44.13196 | -95.72572 | 24389 ft | 189 kts | 53° |
| 2026-04-26 13:59 | 44.13892 | -95.71021 | 24512 ft | 189 kts | 52° |
| 2026-04-26 14:00 | 44.15969 | -95.66387 | 24888 ft | 188 kts | 52° |
| 2026-04-26 14:00 | 44.16663 | -95.64839 | 25003 ft | 189 kts | 52° |
| 2026-04-26 14:00 | 44.17122 | -95.63812 | 25076 ft | 189 kts | 52° |
| 2026-04-26 14:01 | 44.18072 | -95.61694 | 25136 ft | 197 kts | 52° |
| 2026-04-26 14:01 | 44.18810 | -95.60044 | 25145 ft | 204 kts | 52° |
| 2026-04-26 14:01 | 44.19569 | -95.58340 | 25146 ft | 210 kts | 53° |
| 2026-04-26 14:01 | 44.20350 | -95.56589 | 25146 ft | 215 kts | 53° |
| 2026-04-26 14:02 | 44.21152 | -95.54792 | 25138 ft | 221 kts | 53° |
| 2026-04-26 14:02 | 44.21971 | -95.52957 | 25140 ft | 225 kts | 53° |
| 2026-04-26 14:02 | 44.22789 | -95.51121 | 25141 ft | 227 kts | 53° |
| 2026-04-26 14:02 | 44.23625 | -95.49245 | 25141 ft | 229 kts | 53° |
| 2026-04-26 14:03 | 44.24465 | -95.47357 | 25138 ft | 229 kts | 53° |
| 2026-04-26 14:03 | 44.25307 | -95.45465 | 25142 ft | 230 kts | 53° |
| 2026-04-26 14:03 | 44.26150 | -95.43569 | 25141 ft | 230 kts | 53° |
| 2026-04-26 14:03 | 44.26992 | -95.41673 | 25142 ft | 230 kts | 53° |
| 2026-04-26 14:04 | 44.27836 | -95.39771 | 25139 ft | 231 kts | 53° |
| 2026-04-26 14:04 | 44.28681 | -95.37866 | 25140 ft | 231 kts | 53° |
| 2026-04-26 14:04 | 44.29527 | -95.35960 | 25141 ft | 231 kts | 53° |
| 2026-04-26 14:04 | 44.30378 | -95.34038 | 25131 ft | 234 kts | 53° |
| 2026-04-26 14:05 | 44.31233 | -95.32107 | 25120 ft | 234 kts | 53° |
| 2026-04-26 14:05 | 44.32088 | -95.30175 | 25117 ft | 233 kts | 53° |
| 2026-04-26 14:05 | 44.32937 | -95.28252 | 25115 ft | 232 kts | 53° |
| 2026-04-26 14:05 | 44.33786 | -95.26332 | 25116 ft | 232 kts | 53° |
| 2026-04-26 14:06 | 44.34634 | -95.24413 | 25120 ft | 232 kts | 53° |
| 2026-04-26 14:06 | 44.35483 | -95.22488 | 25120 ft | 233 kts | 53° |
| 2026-04-26 14:06 | 44.36334 | -95.20558 | 25119 ft | 233 kts | 53° |
| 2026-04-26 14:06 | 44.37187 | -95.18622 | 25118 ft | 234 kts | 53° |
| 2026-04-26 14:07 | 44.38042 | -95.16683 | 25117 ft | 234 kts | 53° |
| 2026-04-26 14:07 | 44.38896 | -95.14741 | 25115 ft | 235 kts | 53° |
| 2026-04-26 14:07 | 44.39753 | -95.12792 | 25114 ft | 235 kts | 53° |
| 2026-04-26 14:07 | 44.40607 | -95.10848 | 25113 ft | 235 kts | 53° |
| 2026-04-26 14:08 | 44.41449 | -95.08932 | 25110 ft | 235 kts | 53° |
| 2026-04-26 14:08 | 44.42305 | -95.06982 | 25108 ft | 234 kts | 53° |
| 2026-04-26 14:08 | 44.43154 | -95.05046 | 25107 ft | 233 kts | 53° |
| 2026-04-26 14:08 | 44.44001 | -95.03114 | 25106 ft | 233 kts | 53° |
| 2026-04-26 14:09 | 44.44846 | -95.01185 | 25105 ft | 232 kts | 53° |
| 2026-04-26 14:09 | 44.45690 | -94.99256 | 25105 ft | 232 kts | 53° |
| 2026-04-26 14:09 | 44.46533 | -94.97330 | 25104 ft | 232 kts | 53° |
| 2026-04-26 14:09 | 44.47374 | -94.95406 | 25104 ft | 231 kts | 53° |
| 2026-04-26 14:10 | 44.48210 | -94.93490 | 25106 ft | 230 kts | 53° |
| 2026-04-26 14:10 | 44.49043 | -94.91582 | 25107 ft | 229 kts | 53° |
| 2026-04-26 14:10 | 44.49874 | -94.89679 | 25106 ft | 229 kts | 54° |
| 2026-04-26 14:10 | 44.50702 | -94.87780 | 25107 ft | 228 kts | 53° |
| 2026-04-26 14:11 | 44.52363 | -94.83965 | 25122 ft | 230 kts | 54° |
| 2026-04-26 14:11 | 44.53196 | -94.82051 | 25123 ft | 230 kts | 54° |
| 2026-04-26 14:11 | 44.54028 | -94.80137 | 25124 ft | 230 kts | 54° |
| 2026-04-26 14:12 | 44.54861 | -94.78220 | 25127 ft | 230 kts | 54° |
| 2026-04-26 14:12 | 44.55694 | -94.76302 | 25127 ft | 230 kts | 54° |
| 2026-04-26 14:12 | 44.56528 | -94.74380 | 25128 ft | 230 kts | 54° |
| 2026-04-26 14:12 | 44.57357 | -94.72468 | 25129 ft | 230 kts | 54° |
| 2026-04-26 14:13 | 44.59015 | -94.68641 | 25138 ft | 229 kts | 54° |
| 2026-04-26 14:13 | 44.59841 | -94.66732 | 25141 ft | 229 kts | 54° |
| 2026-04-26 14:13 | 44.60666 | -94.64823 | 25141 ft | 229 kts | 54° |
| 2026-04-26 14:14 | 44.61484 | -94.62932 | 25144 ft | 230 kts | 54° |
| 2026-04-26 14:14 | 44.62313 | -94.61014 | 25145 ft | 231 kts | 54° |
| 2026-04-26 14:14 | 44.63146 | -94.59081 | 25144 ft | 231 kts | 54° |
| 2026-04-26 14:14 | 44.63979 | -94.57151 | 25132 ft | 231 kts | 55° |
| 2026-04-26 14:15 | 44.64808 | -94.55228 | 25136 ft | 230 kts | 55° |
| 2026-04-26 14:15 | 44.65635 | -94.53306 | 25133 ft | 229 kts | 55° |
| 2026-04-26 14:15 | 44.66458 | -94.51395 | 25132 ft | 228 kts | 55° |
| 2026-04-26 14:15 | 44.67275 | -94.49494 | 25131 ft | 227 kts | 55° |
| 2026-04-26 14:16 | 44.68089 | -94.47603 | 25129 ft | 226 kts | 55° |
| 2026-04-26 14:16 | 44.68899 | -94.45716 | 25128 ft | 225 kts | 55° |
| 2026-04-26 14:16 | 44.69707 | -94.43834 | 25128 ft | 225 kts | 55° |
| 2026-04-26 14:16 | 44.70515 | -94.41952 | 25131 ft | 224 kts | 55° |
| 2026-04-26 14:17 | 44.71319 | -94.40076 | 25130 ft | 224 kts | 55° |
| 2026-04-26 14:17 | 44.72122 | -94.38202 | 25131 ft | 224 kts | 55° |
| 2026-04-26 14:17 | 44.72925 | -94.36326 | 25130 ft | 224 kts | 55° |
| 2026-04-26 14:17 | 44.73456 | -94.35087 | 25131 ft | 224 kts | 55° |
| 2026-04-26 14:18 | 44.74259 | -94.33208 | 25133 ft | 224 kts | 55° |
| 2026-04-26 14:18 | 44.75063 | -94.31328 | 25133 ft | 224 kts | 55° |
| 2026-04-26 14:18 | 44.75866 | -94.29448 | 25133 ft | 224 kts | 55° |
| 2026-04-26 14:18 | 44.76669 | -94.27566 | 25133 ft | 224 kts | 55° |
| 2026-04-26 14:19 | 44.77472 | -94.25682 | 25132 ft | 224 kts | 55° |
| 2026-04-26 14:19 | 44.78276 | -94.23798 | 25123 ft | 224 kts | 55° |
| 2026-04-26 14:19 | 44.79078 | -94.21915 | 25122 ft | 224 kts | 55° |
| 2026-04-26 14:19 | 44.79880 | -94.20032 | 25121 ft | 224 kts | 55° |
| 2026-04-26 14:20 | 44.80682 | -94.18146 | 25120 ft | 224 kts | 56° |
| 2026-04-26 14:20 | 44.81482 | -94.16263 | 25119 ft | 224 kts | 56° |
| 2026-04-26 14:20 | 44.82271 | -94.14408 | 25119 ft | 224 kts | 56° |
| 2026-04-26 14:20 | 44.83070 | -94.12526 | 25121 ft | 224 kts | 56° |
| 2026-04-26 14:21 | 44.83871 | -94.10637 | 25125 ft | 225 kts | 56° |
| 2026-04-26 14:21 | 44.84677 | -94.08737 | 25124 ft | 226 kts | 56° |
| 2026-04-26 14:21 | 44.85484 | -94.06831 | 25123 ft | 226 kts | 56° |
| 2026-04-26 14:21 | 44.86290 | -94.04928 | 25114 ft | 226 kts | 56° |
| 2026-04-26 14:22 | 44.87094 | -94.03028 | 25113 ft | 225 kts | 56° |
| 2026-04-26 14:22 | 44.87897 | -94.01130 | 25119 ft | 225 kts | 56° |
| 2026-04-26 14:22 | 44.88702 | -93.99226 | 25124 ft | 227 kts | 56° |
| 2026-04-26 14:22 | 44.89513 | -93.97305 | 25124 ft | 229 kts | 56° |
| 2026-04-26 14:23 | 44.90326 | -93.95376 | 25126 ft | 228 kts | 56° |
| 2026-04-26 14:23 | 44.91138 | -93.93451 | 25127 ft | 228 kts | 56° |
| 2026-04-26 14:23 | 44.91950 | -93.91525 | 25128 ft | 228 kts | 56° |
| 2026-04-26 14:23 | 44.92761 | -93.89599 | 25133 ft | 228 kts | 56° |
| 2026-04-26 14:24 | 44.93572 | -93.87673 | 25136 ft | 229 kts | 55° |
| 2026-04-26 14:24 | 44.94385 | -93.85739 | 25139 ft | 229 kts | 55° |
| 2026-04-26 14:24 | 44.95198 | -93.83806 | 25140 ft | 229 kts | 55° |
| 2026-04-26 14:24 | 44.96009 | -93.81874 | 25143 ft | 229 kts | 55° |
| 2026-04-26 14:25 | 44.96821 | -93.79940 | 25125 ft | 229 kts | 55° |
| 2026-04-26 14:25 | 44.97633 | -93.78004 | 25125 ft | 229 kts | 55° |
| 2026-04-26 14:25 | 44.98444 | -93.76069 | 25126 ft | 229 kts | 55° |
| 2026-04-26 14:25 | 44.99255 | -93.74133 | 25121 ft | 228 kts | 55° |
| 2026-04-26 14:26 | 45.00064 | -93.72201 | 25127 ft | 228 kts | 55° |
| 2026-04-26 14:26 | 45.00869 | -93.70275 | 25126 ft | 228 kts | 55° |
| 2026-04-26 14:26 | 45.01673 | -93.68352 | 25126 ft | 227 kts | 55° |
| 2026-04-26 14:26 | 45.02467 | -93.66452 | 25127 ft | 228 kts | 55° |
| 2026-04-26 14:27 | 45.03281 | -93.64501 | 25125 ft | 227 kts | 55° |
| 2026-04-26 14:27 | 45.04074 | -93.62601 | 25125 ft | 227 kts | 55° |
| 2026-04-26 14:27 | 45.04876 | -93.60676 | 25125 ft | 227 kts | 55° |
| 2026-04-26 14:27 | 45.05679 | -93.58749 | 25125 ft | 228 kts | 55° |
| 2026-04-26 14:28 | 45.06483 | -93.56819 | 25121 ft | 228 kts | 56° |
| 2026-04-26 14:28 | 45.07287 | -93.54886 | 25121 ft | 228 kts | 56° |
| 2026-04-26 14:28 | 45.08090 | -93.52952 | 25121 ft | 228 kts | 56° |
| 2026-04-26 14:28 | 45.08892 | -93.51023 | 25120 ft | 227 kts | 56° |
| 2026-04-26 14:29 | 45.09691 | -93.49097 | 25122 ft | 227 kts | 56° |
| 2026-04-26 14:29 | 45.10491 | -93.47170 | 25122 ft | 227 kts | 56° |
| 2026-04-26 14:29 | 45.11288 | -93.45247 | 25123 ft | 227 kts | 56° |
| 2026-04-26 14:29 | 45.12087 | -93.43319 | 25122 ft | 227 kts | 56° |
| 2026-04-26 14:30 | 45.12886 | -93.41390 | 25123 ft | 227 kts | 56° |
| 2026-04-26 14:30 | 45.13685 | -93.39457 | 25123 ft | 227 kts | 56° |
| 2026-04-26 14:30 | 45.14458 | -93.37501 | 25136 ft | 230 kts | 63° |
| 2026-04-26 14:30 | 45.14944 | -93.35335 | 25132 ft | 232 kts | 74° |
| 2026-04-26 14:31 | 45.15351 | -93.33112 | 25141 ft | 233 kts | 76° |
| 2026-04-26 14:31 | 45.15748 | -93.30887 | 25140 ft | 233 kts | 75° |
| 2026-04-26 14:31 | 45.16149 | -93.28666 | 25141 ft | 233 kts | 75° |
| 2026-04-26 14:31 | 45.16554 | -93.26448 | 25140 ft | 233 kts | 75° |
| 2026-04-26 14:32 | 45.16959 | -93.24230 | 25143 ft | 232 kts | 75° |
| 2026-04-26 14:32 | 45.17362 | -93.22015 | 25144 ft | 232 kts | 75° |
| 2026-04-26 14:32 | 45.17764 | -93.19796 | 25145 ft | 233 kts | 75° |
| 2026-04-26 14:32 | 45.18167 | -93.17573 | 25144 ft | 233 kts | 75° |
| 2026-04-26 14:33 | 45.18570 | -93.15349 | 25142 ft | 233 kts | 75° |
| 2026-04-26 14:33 | 45.18975 | -93.13113 | 25140 ft | 233 kts | 75° |
| 2026-04-26 14:33 | 45.19376 | -93.10892 | 25141 ft | 233 kts | 75° |
| 2026-04-26 14:33 | 45.19773 | -93.08692 | 25141 ft | 233 kts | 75° |
| 2026-04-26 14:34 | 45.20174 | -93.06468 | 25128 ft | 232 kts | 75° |
| 2026-04-26 14:34 | 45.20572 | -93.04257 | 25129 ft | 231 kts | 75° |
| 2026-04-26 14:34 | 45.20970 | -93.02044 | 25129 ft | 231 kts | 75° |
| 2026-04-26 14:34 | 45.21366 | -92.99840 | 25128 ft | 231 kts | 75° |
| 2026-04-26 14:35 | 45.21762 | -92.97636 | 25131 ft | 230 kts | 75° |
| 2026-04-26 14:35 | 45.22156 | -92.95438 | 25133 ft | 230 kts | 75° |
| 2026-04-26 14:35 | 45.22549 | -92.93241 | 25133 ft | 230 kts | 75° |
| 2026-04-26 14:35 | 45.22942 | -92.91044 | 25132 ft | 229 kts | 75° |
| 2026-04-26 14:36 | 45.23333 | -92.88850 | 25133 ft | 230 kts | 75° |
| 2026-04-26 14:36 | 45.23726 | -92.86649 | 25133 ft | 230 kts | 75° |
| 2026-04-26 14:36 | 45.24118 | -92.84448 | 25134 ft | 231 kts | 75° |
| 2026-04-26 14:36 | 45.24507 | -92.82260 | 25135 ft | 232 kts | 75° |
| 2026-04-26 14:37 | 45.24901 | -92.80041 | 25169 ft | 232 kts | 75° |
| 2026-04-26 14:37 | 45.25294 | -92.77825 | 25169 ft | 232 kts | 75° |
| 2026-04-26 14:37 | 45.25687 | -92.75606 | 25170 ft | 232 kts | 75° |
| 2026-04-26 14:37 | 45.26081 | -92.73383 | 25171 ft | 232 kts | 75° |
| 2026-04-26 14:38 | 45.26475 | -92.71155 | 25169 ft | 232 kts | 76° |
| 2026-04-26 14:38 | 45.26868 | -92.68934 | 25165 ft | 232 kts | 75° |
| 2026-04-26 14:38 | 45.27259 | -92.66715 | 25165 ft | 232 kts | 75° |
| 2026-04-26 14:38 | 45.27648 | -92.64499 | 25167 ft | 231 kts | 75° |
| 2026-04-26 14:39 | 45.28037 | -92.62286 | 25169 ft | 231 kts | 75° |
| 2026-04-26 14:39 | 45.28426 | -92.60076 | 25168 ft | 231 kts | 75° |
| 2026-04-26 14:39 | 45.28814 | -92.57869 | 25168 ft | 231 kts | 75° |
| 2026-04-26 14:39 | 45.29201 | -92.55659 | 25168 ft | 230 kts | 75° |
| 2026-04-26 14:40 | 45.29588 | -92.53450 | 25164 ft | 230 kts | 75° |
| 2026-04-26 14:40 | 45.29975 | -92.51235 | 25162 ft | 231 kts | 75° |
| 2026-04-26 14:40 | 45.30361 | -92.49025 | 25159 ft | 230 kts | 75° |
| 2026-04-26 14:40 | 45.30746 | -92.46817 | 25157 ft | 230 kts | 75° |
| 2026-04-26 14:41 | 45.31131 | -92.44608 | 25155 ft | 230 kts | 75° |
| 2026-04-26 14:41 | 45.31514 | -92.42406 | 25127 ft | 230 kts | 75° |
| 2026-04-26 14:41 | 45.31897 | -92.40203 | 25131 ft | 229 kts | 75° |
| 2026-04-26 14:41 | 45.32278 | -92.38008 | 25131 ft | 229 kts | 75° |
| 2026-04-26 14:42 | 45.32658 | -92.35814 | 25130 ft | 229 kts | 75° |
| 2026-04-26 14:42 | 45.33034 | -92.33642 | 25131 ft | 229 kts | 75° |
| 2026-04-26 14:42 | 45.33414 | -92.31444 | 25119 ft | 229 kts | 75° |
| 2026-04-26 14:42 | 45.33792 | -92.29252 | 25129 ft | 228 kts | 75° |
| 2026-04-26 14:43 | 45.34171 | -92.27058 | 25135 ft | 228 kts | 75° |
| 2026-04-26 14:43 | 45.34548 | -92.24869 | 25136 ft | 228 kts | 75° |
| 2026-04-26 14:43 | 45.34925 | -92.22677 | 25138 ft | 228 kts | 75° |
| 2026-04-26 14:43 | 45.35302 | -92.20483 | 25138 ft | 229 kts | 75° |
| 2026-04-26 14:44 | 45.35679 | -92.18285 | 25136 ft | 229 kts | 75° |
| 2026-04-26 14:44 | 45.36055 | -92.16090 | 25134 ft | 228 kts | 75° |
| 2026-04-26 14:44 | 45.36431 | -92.13897 | 25135 ft | 228 kts | 75° |
| 2026-04-26 14:44 | 45.36806 | -92.11700 | 25147 ft | 229 kts | 75° |
| 2026-04-26 14:45 | 45.37182 | -92.09500 | 25149 ft | 229 kts | 75° |
| 2026-04-26 14:45 | 45.37431 | -92.08042 | 25150 ft | 230 kts | 75° |
| 2026-04-26 14:45 | 45.37936 | -92.05075 | 25153 ft | 231 kts | 75° |
| 2026-04-26 14:45 | 45.38314 | -92.02851 | 25154 ft | 232 kts | 75° |
| 2026-04-26 14:46 | 45.38695 | -92.00611 | 25149 ft | 234 kts | 75° |
| 2026-04-26 14:46 | 45.39079 | -91.98348 | 25152 ft | 236 kts | 75° |
| 2026-04-26 14:46 | 45.39465 | -91.96069 | 25151 ft | 237 kts | 75° |
| 2026-04-26 14:46 | 45.39851 | -91.93786 | 25148 ft | 237 kts | 75° |
| 2026-04-26 14:47 | 45.40236 | -91.91508 | 25140 ft | 236 kts | 75° |
| 2026-04-26 14:47 | 45.40618 | -91.89247 | 25137 ft | 234 kts | 75° |
| 2026-04-26 14:47 | 45.40992 | -91.87028 | 25148 ft | 233 kts | 75° |
| 2026-04-26 14:47 | 45.41373 | -91.84766 | 25147 ft | 232 kts | 75° |
| 2026-04-26 14:48 | 45.41742 | -91.82570 | 25147 ft | 231 kts | 75° |
| 2026-04-26 14:48 | 45.42115 | -91.80352 | 25147 ft | 230 kts | 76° |
| 2026-04-26 14:48 | 45.42486 | -91.78136 | 25146 ft | 230 kts | 76° |
| 2026-04-26 14:48 | 45.42856 | -91.75927 | 25146 ft | 229 kts | 76° |
| 2026-04-26 14:49 | 45.43225 | -91.73723 | 25149 ft | 229 kts | 75° |
| 2026-04-26 14:49 | 45.43594 | -91.71518 | 25147 ft | 229 kts | 76° |
| 2026-04-26 14:49 | 45.43961 | -91.69312 | 25149 ft | 229 kts | 76° |
| 2026-04-26 14:49 | 45.44329 | -91.67108 | 25148 ft | 229 kts | 76° |
| 2026-04-26 14:50 | 45.44695 | -91.64906 | 25148 ft | 229 kts | 76° |
| 2026-04-26 14:50 | 45.45062 | -91.62699 | 25148 ft | 229 kts | 76° |
| 2026-04-26 14:50 | 45.45429 | -91.60491 | 25145 ft | 229 kts | 76° |
| 2026-04-26 14:50 | 45.45795 | -91.58285 | 25144 ft | 229 kts | 76° |
| 2026-04-26 14:51 | 45.46160 | -91.56077 | 25144 ft | 229 kts | 76° |
| 2026-04-26 14:51 | 45.46525 | -91.53872 | 25145 ft | 228 kts | 76° |
| 2026-04-26 14:51 | 45.46887 | -91.51674 | 25141 ft | 228 kts | 76° |
| 2026-04-26 14:51 | 45.47251 | -91.49470 | 25140 ft | 228 kts | 76° |
| 2026-04-26 14:52 | 45.47609 | -91.47298 | 25139 ft | 228 kts | 76° |
| 2026-04-26 14:52 | 45.47970 | -91.45101 | 25138 ft | 228 kts | 76° |
| 2026-04-26 14:52 | 45.48332 | -91.42898 | 25136 ft | 228 kts | 76° |
| 2026-04-26 14:52 | 45.48693 | -91.40699 | 25134 ft | 228 kts | 76° |
| 2026-04-26 14:53 | 45.49053 | -91.38500 | 25140 ft | 228 kts | 76° |
| 2026-04-26 14:53 | 45.49413 | -91.36302 | 25143 ft | 227 kts | 76° |
| 2026-04-26 14:53 | 45.49771 | -91.34108 | 25145 ft | 228 kts | 76° |
| 2026-04-26 14:53 | 45.50130 | -91.31907 | 25148 ft | 228 kts | 76° |
| 2026-04-26 14:54 | 45.50488 | -91.29711 | 25147 ft | 228 kts | 76° |
| 2026-04-26 14:54 | 45.50847 | -91.27510 | 25150 ft | 228 kts | 76° |
| 2026-04-26 14:54 | 45.51204 | -91.25316 | 25151 ft | 227 kts | 76° |
| 2026-04-26 14:54 | 45.51560 | -91.23119 | 25154 ft | 227 kts | 76° |
| 2026-04-26 14:55 | 45.51917 | -91.20922 | 25160 ft | 227 kts | 76° |
| 2026-04-26 14:55 | 45.52268 | -91.18754 | 25161 ft | 227 kts | 76° |
| 2026-04-26 14:55 | 45.52623 | -91.16556 | 25156 ft | 227 kts | 77° |
| 2026-04-26 14:55 | 45.52977 | -91.14364 | 25166 ft | 227 kts | 77° |
| 2026-04-26 14:56 | 45.53330 | -91.12176 | 25170 ft | 226 kts | 77° |
| 2026-04-26 14:56 | 45.53682 | -91.09987 | 25170 ft | 226 kts | 77° |
| 2026-04-26 14:56 | 45.54035 | -91.07799 | 25171 ft | 226 kts | 77° |
| 2026-04-26 14:56 | 45.54386 | -91.05611 | 25170 ft | 226 kts | 77° |
| 2026-04-26 14:57 | 45.54737 | -91.03422 | 25168 ft | 226 kts | 77° |
| 2026-04-26 14:57 | 45.55088 | -91.01234 | 25168 ft | 226 kts | 77° |
| 2026-04-26 14:57 | 45.55438 | -90.99046 | 25168 ft | 226 kts | 77° |
| 2026-04-26 14:57 | 45.55787 | -90.96862 | 25168 ft | 226 kts | 77° |
| 2026-04-26 14:58 | 45.56136 | -90.94678 | 25168 ft | 226 kts | 77° |
| 2026-04-26 14:58 | 45.56485 | -90.92487 | 25135 ft | 226 kts | 77° |
| 2026-04-26 14:58 | 45.56834 | -90.90297 | 25135 ft | 227 kts | 77° |
| 2026-04-26 14:58 | 45.57182 | -90.88104 | 25134 ft | 227 kts | 77° |
| 2026-04-26 14:59 | 45.57531 | -90.85907 | 25141 ft | 227 kts | 78° |
| 2026-04-26 14:59 | 45.57879 | -90.83713 | 25150 ft | 226 kts | 78° |
| 2026-04-26 14:59 | 45.58226 | -90.81521 | 25151 ft | 226 kts | 78° |
| 2026-04-26 14:59 | 45.58456 | -90.80068 | 25151 ft | 227 kts | 78° |
| 2026-04-26 15:00 | 45.58920 | -90.77130 | 25144 ft | 227 kts | 79° |
| 2026-04-26 15:00 | 45.59261 | -90.74967 | 25144 ft | 226 kts | 79° |
| 2026-04-26 15:00 | 45.59607 | -90.72777 | 25143 ft | 226 kts | 79° |
| 2026-04-26 15:00 | 45.59951 | -90.70591 | 25144 ft | 226 kts | 79° |
| 2026-04-26 15:01 | 45.60298 | -90.68405 | 25143 ft | 226 kts | 78° |
| 2026-04-26 15:01 | 45.60640 | -90.66221 | 25143 ft | 225 kts | 79° |
| 2026-04-26 15:01 | 45.60976 | -90.64033 | 25143 ft | 225 kts | 79° |
| 2026-04-26 15:01 | 45.61318 | -90.61847 | 25146 ft | 225 kts | 79° |
| 2026-04-26 15:02 | 45.61662 | -90.59659 | 25147 ft | 225 kts | 79° |
| 2026-04-26 15:02 | 45.62004 | -90.57472 | 25147 ft | 225 kts | 79° |
| 2026-04-26 15:02 | 45.62345 | -90.55289 | 25147 ft | 225 kts | 79° |
| 2026-04-26 15:02 | 45.62684 | -90.53104 | 25147 ft | 225 kts | 79° |
| 2026-04-26 15:03 | 45.63024 | -90.50918 | 25143 ft | 226 kts | 79° |
| 2026-04-26 15:03 | 45.63363 | -90.48732 | 25143 ft | 225 kts | 79° |
| 2026-04-26 15:03 | 45.63702 | -90.46546 | 25149 ft | 225 kts | 79° |
| 2026-04-26 15:03 | 45.64041 | -90.44358 | 25149 ft | 225 kts | 79° |
| 2026-04-26 15:04 | 45.64379 | -90.42169 | 25153 ft | 225 kts | 79° |
| 2026-04-26 15:04 | 45.64717 | -90.39983 | 25153 ft | 226 kts | 79° |
| 2026-04-26 15:04 | 45.65054 | -90.37794 | 25150 ft | 225 kts | 79° |
| 2026-04-26 15:04 | 45.65391 | -90.35609 | 25149 ft | 225 kts | 79° |
| 2026-04-26 15:05 | 45.65726 | -90.33425 | 25146 ft | 225 kts | 79° |
| 2026-04-26 15:05 | 45.65836 | -90.32714 | 25146 ft | 225 kts | 79° |
| 2026-04-26 15:05 | 45.66284 | -90.29793 | 25150 ft | 225 kts | 79° |
| 2026-04-26 15:05 | 45.66619 | -90.27606 | 25149 ft | 225 kts | 79° |
| 2026-04-26 15:06 | 45.67062 | -90.24710 | 25152 ft | 225 kts | 79° |
| 2026-04-26 15:06 | 45.67395 | -90.22524 | 25151 ft | 225 kts | 79° |
| 2026-04-26 15:06 | 45.67621 | -90.21045 | 25151 ft | 225 kts | 79° |
| 2026-04-26 15:06 | 45.67955 | -90.18855 | 25151 ft | 225 kts | 79° |
| 2026-04-26 15:07 | 45.68616 | -90.14506 | 25146 ft | 225 kts | 79° |
| 2026-04-26 15:07 | 45.68949 | -90.12312 | 25146 ft | 225 kts | 79° |
| 2026-04-26 15:07 | 45.69281 | -90.10123 | 25147 ft | 225 kts | 79° |
| 2026-04-26 15:08 | 45.69612 | -90.07934 | 25145 ft | 225 kts | 79° |
| 2026-04-26 15:08 | 45.69942 | -90.05746 | 25145 ft | 225 kts | 79° |
| 2026-04-26 15:08 | 45.70272 | -90.03558 | 25145 ft | 225 kts | 79° |
| 2026-04-26 15:08 | 45.70602 | -90.01369 | 25143 ft | 225 kts | 79° |
| 2026-04-26 15:09 | 45.70932 | -89.99181 | 25137 ft | 225 kts | 79° |
| 2026-04-26 15:09 | 45.71259 | -89.97004 | 25147 ft | 223 kts | 79° |
| 2026-04-26 15:09 | 45.71585 | -89.94830 | 25145 ft | 223 kts | 79° |
| 2026-04-26 15:09 | 45.71910 | -89.92658 | 25147 ft | 223 kts | 79° |
| 2026-04-26 15:10 | 45.72236 | -89.90485 | 25149 ft | 223 kts | 79° |
| 2026-04-26 15:10 | 45.72450 | -89.89049 | 25150 ft | 223 kts | 80° |
| 2026-04-26 15:10 | 45.72883 | -89.86147 | 25150 ft | 223 kts | 80° |
| 2026-04-26 15:10 | 45.73207 | -89.83978 | 25151 ft | 223 kts | 80° |
| 2026-04-26 15:11 | 45.73529 | -89.81810 | 25147 ft | 223 kts | 80° |
| 2026-04-26 15:11 | 45.73848 | -89.79665 | 25148 ft | 223 kts | 80° |
| 2026-04-26 15:11 | 45.74170 | -89.77493 | 25148 ft | 223 kts | 80° |
| 2026-04-26 15:11 | 45.74492 | -89.75323 | 25144 ft | 223 kts | 80° |
| 2026-04-26 15:12 | 45.74813 | -89.73153 | 25152 ft | 223 kts | 80° |
| 2026-04-26 15:12 | 45.75134 | -89.70983 | 25151 ft | 223 kts | 80° |
| 2026-04-26 15:12 | 45.75454 | -89.68814 | 25153 ft | 223 kts | 80° |
| 2026-04-26 15:12 | 45.75775 | -89.66638 | 25149 ft | 223 kts | 80° |
| 2026-04-26 15:13 | 45.76095 | -89.64459 | 25151 ft | 223 kts | 80° |
| 2026-04-26 15:13 | 45.76415 | -89.62286 | 25150 ft | 223 kts | 80° |
| 2026-04-26 15:13 | 45.76734 | -89.60108 | 25150 ft | 223 kts | 80° |
| 2026-04-26 15:13 | 45.77053 | -89.57933 | 25146 ft | 223 kts | 80° |
| 2026-04-26 15:14 | 45.77371 | -89.55757 | 25160 ft | 223 kts | 79° |
| 2026-04-26 15:14 | 45.77690 | -89.53576 | 25162 ft | 224 kts | 80° |
| 2026-04-26 15:14 | 45.78009 | -89.51391 | 25161 ft | 224 kts | 80° |
| 2026-04-26 15:14 | 45.78328 | -89.49203 | 25165 ft | 224 kts | 80° |
| 2026-04-26 15:15 | 45.78647 | -89.47010 | 25166 ft | 225 kts | 80° |
| 2026-04-26 15:15 | 45.78965 | -89.44818 | 25167 ft | 225 kts | 80° |
| 2026-04-26 15:15 | 45.79284 | -89.42625 | 25168 ft | 225 kts | 80° |
| 2026-04-26 15:15 | 45.79602 | -89.40431 | 25168 ft | 225 kts | 80° |
| 2026-04-26 15:16 | 45.79920 | -89.38233 | 25162 ft | 225 kts | 80° |
| 2026-04-26 15:16 | 45.80238 | -89.36031 | 25168 ft | 226 kts | 80° |
| 2026-04-26 15:16 | 45.80556 | -89.33826 | 25170 ft | 226 kts | 80° |
| 2026-04-26 15:16 | 45.80870 | -89.31645 | 25167 ft | 226 kts | 80° |
| 2026-04-26 15:17 | 45.81192 | -89.29407 | 25172 ft | 226 kts | 80° |
| 2026-04-26 15:17 | 45.81402 | -89.27943 | 25169 ft | 226 kts | 80° |
| 2026-04-26 15:17 | 45.81821 | -89.25022 | 25169 ft | 225 kts | 80° |
| 2026-04-26 15:17 | 45.82137 | -89.22822 | 25170 ft | 225 kts | 80° |
| 2026-04-26 15:18 | 45.82451 | -89.20621 | 25159 ft | 225 kts | 81° |
| 2026-04-26 15:18 | 45.82765 | -89.18421 | 25157 ft | 225 kts | 81° |
| 2026-04-26 15:18 | 45.83079 | -89.16224 | 25157 ft | 225 kts | 81° |
| 2026-04-26 15:18 | 45.83392 | -89.14030 | 25155 ft | 224 kts | 81° |
| 2026-04-26 15:19 | 45.83700 | -89.11862 | 25157 ft | 224 kts | 81° |
| 2026-04-26 15:19 | 45.84015 | -89.09641 | 25157 ft | 224 kts | 81° |
| 2026-04-26 15:19 | 45.84322 | -89.07478 | 25156 ft | 224 kts | 81° |
| 2026-04-26 15:19 | 45.84632 | -89.05284 | 25160 ft | 224 kts | 81° |
| 2026-04-26 15:20 | 45.84942 | -89.03093 | 25157 ft | 224 kts | 81° |
| 2026-04-26 15:20 | 45.85251 | -89.00904 | 25157 ft | 224 kts | 81° |
| 2026-04-26 15:20 | 45.85560 | -88.98712 | 25157 ft | 224 kts | 81° |
| 2026-04-26 15:20 | 45.85868 | -88.96522 | 25157 ft | 224 kts | 81° |
| 2026-04-26 15:21 | 45.86175 | -88.94334 | 25157 ft | 224 kts | 81° |
| 2026-04-26 15:21 | 45.86483 | -88.92141 | 25153 ft | 224 kts | 81° |
| 2026-04-26 15:21 | 45.86791 | -88.89946 | 25157 ft | 224 kts | 81° |
| 2026-04-26 15:21 | 45.87097 | -88.87754 | 25165 ft | 224 kts | 81° |
| 2026-04-26 15:22 | 45.87403 | -88.85565 | 25167 ft | 224 kts | 81° |
| 2026-04-26 15:22 | 45.87709 | -88.83371 | 25165 ft | 224 kts | 81° |
| 2026-04-26 15:22 | 45.88014 | -88.81182 | 25164 ft | 223 kts | 81° |
| 2026-04-26 15:22 | 45.88314 | -88.79028 | 25173 ft | 223 kts | 81° |
| 2026-04-26 15:23 | 45.88618 | -88.76839 | 25172 ft | 224 kts | 81° |
| 2026-04-26 15:23 | 45.88922 | -88.74648 | 25169 ft | 224 kts | 81° |
| 2026-04-26 15:23 | 45.89225 | -88.72455 | 25178 ft | 224 kts | 81° |
| 2026-04-26 15:23 | 45.89528 | -88.70263 | 25178 ft | 224 kts | 81° |
| 2026-04-26 15:24 | 45.89831 | -88.68068 | 25180 ft | 224 kts | 81° |
| 2026-04-26 15:24 | 45.90134 | -88.65876 | 25180 ft | 224 kts | 81° |
| 2026-04-26 15:24 | 45.90436 | -88.63683 | 25180 ft | 224 kts | 81° |
| 2026-04-26 15:24 | 45.90737 | -88.61488 | 25180 ft | 224 kts | 81° |
| 2026-04-26 15:25 | 45.91038 | -88.59296 | 25177 ft | 224 kts | 81° |
| 2026-04-26 15:25 | 45.91238 | -88.57837 | 25188 ft | 224 kts | 81° |
| 2026-04-26 15:25 | 45.91640 | -88.54901 | 25187 ft | 224 kts | 81° |
| 2026-04-26 15:25 | 45.91936 | -88.52734 | 25186 ft | 224 kts | 81° |
| 2026-04-26 15:26 | 45.92235 | -88.50540 | 25180 ft | 224 kts | 81° |
| 2026-04-26 15:26 | 45.92534 | -88.48344 | 25182 ft | 224 kts | 81° |
| 2026-04-26 15:26 | 45.92834 | -88.46142 | 25183 ft | 224 kts | 81° |
| 2026-04-26 15:26 | 45.93132 | -88.43945 | 25181 ft | 224 kts | 81° |
| 2026-04-26 15:27 | 45.93430 | -88.41746 | 25182 ft | 225 kts | 81° |
| 2026-04-26 15:27 | 45.93729 | -88.39540 | 25181 ft | 225 kts | 81° |
| 2026-04-26 15:27 | 45.94027 | -88.37333 | 25183 ft | 225 kts | 81° |
| 2026-04-26 15:27 | 45.94325 | -88.35127 | 25183 ft | 225 kts | 81° |
| 2026-04-26 15:28 | 45.94622 | -88.32923 | 25183 ft | 225 kts | 81° |
| 2026-04-26 15:28 | 45.94919 | -88.30714 | 25183 ft | 225 kts | 81° |
| 2026-04-26 15:28 | 45.95215 | -88.28508 | 25183 ft | 225 kts | 81° |
| 2026-04-26 15:28 | 45.95511 | -88.26304 | 25188 ft | 225 kts | 81° |
| 2026-04-26 15:29 | 45.95807 | -88.24094 | 25203 ft | 224 kts | 81° |
| 2026-04-26 15:29 | 45.96102 | -88.21891 | 25203 ft | 225 kts | 81° |
| 2026-04-26 15:29 | 45.96691 | -88.17474 | 25207 ft | 225 kts | 81° |
| 2026-04-26 15:30 | 45.97280 | -88.13044 | 25203 ft | 226 kts | 81° |
| 2026-04-26 15:30 | 45.97574 | -88.10828 | 25192 ft | 226 kts | 81° |
| 2026-04-26 15:30 | 45.97868 | -88.08610 | 25194 ft | 226 kts | 81° |
| 2026-04-26 15:31 | 45.98161 | -88.06395 | 25196 ft | 226 kts | 82° |
| 2026-04-26 15:31 | 45.98746 | -88.01962 | 25189 ft | 226 kts | 81° |
| 2026-04-26 15:31 | 45.99039 | -87.99743 | 25192 ft | 226 kts | 81° |
| 2026-04-26 15:32 | 45.99523 | -87.96048 | 25192 ft | 227 kts | 81° |
| 2026-04-26 15:32 | 45.99910 | -87.93095 | 25197 ft | 227 kts | 81° |
| 2026-04-26 15:32 | 46.00202 | -87.90866 | 25197 ft | 227 kts | 81° |
| 2026-04-26 15:33 | 46.00494 | -87.88634 | 25198 ft | 227 kts | 81° |
| 2026-04-26 15:33 | 46.00785 | -87.86401 | 25197 ft | 227 kts | 81° |
| 2026-04-26 15:33 | 46.01075 | -87.84170 | 25198 ft | 227 kts | 81° |
| 2026-04-26 15:33 | 46.01365 | -87.81938 | 25199 ft | 227 kts | 81° |
| 2026-04-26 15:34 | 46.01654 | -87.79708 | 25199 ft | 227 kts | 81° |
| 2026-04-26 15:34 | 46.01944 | -87.77475 | 25204 ft | 227 kts | 81° |
| 2026-04-26 15:34 | 46.02233 | -87.75237 | 25205 ft | 227 kts | 81° |
| 2026-04-26 15:34 | 46.02523 | -87.72998 | 25208 ft | 228 kts | 81° |
| 2026-04-26 15:35 | 46.02811 | -87.70759 | 25212 ft | 227 kts | 81° |
| 2026-04-26 15:35 | 46.03100 | -87.68521 | 25215 ft | 227 kts | 81° |
| 2026-04-26 15:35 | 46.03387 | -87.66282 | 25215 ft | 227 kts | 81° |
| 2026-04-26 15:35 | 46.03674 | -87.64045 | 25213 ft | 227 kts | 81° |
| 2026-04-26 15:36 | 46.03961 | -87.61809 | 25200 ft | 227 kts | 81° |
| 2026-04-26 15:36 | 46.04247 | -87.59575 | 25199 ft | 227 kts | 81° |
| 2026-04-26 15:36 | 46.04532 | -87.57339 | 25198 ft | 227 kts | 81° |
| 2026-04-26 15:36 | 46.04817 | -87.55102 | 25199 ft | 227 kts | 81° |
| 2026-04-26 15:37 | 46.05099 | -87.52890 | 25200 ft | 227 kts | 81° |
| 2026-04-26 15:37 | 46.05383 | -87.50650 | 25199 ft | 227 kts | 81° |
| 2026-04-26 15:37 | 46.05668 | -87.48410 | 25198 ft | 227 kts | 81° |
| 2026-04-26 15:37 | 46.05951 | -87.46170 | 25201 ft | 227 kts | 81° |
| 2026-04-26 15:38 | 46.06234 | -87.43933 | 25194 ft | 227 kts | 81° |
| 2026-04-26 15:38 | 46.06517 | -87.41691 | 25194 ft | 227 kts | 81° |
| 2026-04-26 15:38 | 46.06800 | -87.39450 | 25195 ft | 227 kts | 81° |
| 2026-04-26 15:38 | 46.07082 | -87.37206 | 25193 ft | 227 kts | 81° |
| 2026-04-26 15:39 | 46.07363 | -87.34965 | 25193 ft | 227 kts | 81° |
| 2026-04-26 15:39 | 46.07644 | -87.32725 | 25193 ft | 227 kts | 81° |
| 2026-04-26 15:39 | 46.07925 | -87.30484 | 25195 ft | 227 kts | 81° |
| 2026-04-26 15:39 | 46.08111 | -87.28999 | 25197 ft | 227 kts | 81° |
| 2026-04-26 15:40 | 46.08484 | -87.26004 | 25198 ft | 227 kts | 81° |
| 2026-04-26 15:40 | 46.08760 | -87.23794 | 25196 ft | 227 kts | 81° |
| 2026-04-26 15:40 | 46.09038 | -87.21554 | 25192 ft | 227 kts | 81° |
| 2026-04-26 15:40 | 46.09316 | -87.19317 | 25199 ft | 227 kts | 81° |
| 2026-04-26 15:41 | 46.09593 | -87.17083 | 25208 ft | 226 kts | 81° |
| 2026-04-26 15:41 | 46.09869 | -87.14851 | 25208 ft | 226 kts | 81° |
| 2026-04-26 15:41 | 46.10145 | -87.12619 | 25208 ft | 226 kts | 81° |
| 2026-04-26 15:41 | 46.10421 | -87.10383 | 25209 ft | 226 kts | 81° |
| 2026-04-26 15:42 | 46.10695 | -87.08152 | 25209 ft | 226 kts | 81° |
| 2026-04-26 15:42 | 46.10970 | -87.05920 | 25208 ft | 226 kts | 81° |
| 2026-04-26 15:42 | 46.11243 | -87.03691 | 25208 ft | 226 kts | 81° |
| 2026-04-26 15:42 | 46.11517 | -87.01457 | 25209 ft | 226 kts | 81° |
| 2026-04-26 15:43 | 46.11787 | -86.99252 | 25212 ft | 226 kts | 81° |
| 2026-04-26 15:43 | 46.12060 | -86.97018 | 25209 ft | 226 kts | 81° |
| 2026-04-26 15:43 | 46.12604 | -86.92550 | 25209 ft | 226 kts | 81° |
| 2026-04-26 15:44 | 46.12875 | -86.90317 | 25216 ft | 226 kts | 81° |
| 2026-04-26 15:44 | 46.13417 | -86.85841 | 25216 ft | 227 kts | 81° |
| 2026-04-26 15:44 | 46.13688 | -86.83599 | 25217 ft | 227 kts | 81° |
| 2026-04-26 15:45 | 46.14230 | -86.79103 | 25211 ft | 227 kts | 81° |
| 2026-04-26 15:45 | 46.14500 | -86.76860 | 25211 ft | 227 kts | 81° |
| 2026-04-26 15:46 | 46.15037 | -86.72377 | 25213 ft | 227 kts | 81° |
| 2026-04-26 15:46 | 46.15305 | -86.70138 | 25213 ft | 226 kts | 81° |
| 2026-04-26 15:46 | 46.15572 | -86.67900 | 25214 ft | 226 kts | 81° |
| 2026-04-26 15:46 | 46.15659 | -86.67174 | 25214 ft | 226 kts | 81° |
| 2026-04-26 15:47 | 46.16106 | -86.63419 | 25218 ft | 226 kts | 81° |
| 2026-04-26 15:47 | 46.16637 | -86.58941 | 25218 ft | 227 kts | 81° |
| 2026-04-26 15:47 | 46.16902 | -86.56702 | 25219 ft | 227 kts | 81° |
| 2026-04-26 15:48 | 46.17167 | -86.54463 | 25213 ft | 227 kts | 81° |
| 2026-04-26 15:48 | 46.17431 | -86.52223 | 25212 ft | 227 kts | 81° |
| 2026-04-26 15:48 | 46.17695 | -86.49979 | 25213 ft | 227 kts | 81° |
| 2026-04-26 15:48 | 46.17959 | -86.47739 | 25221 ft | 227 kts | 81° |
| 2026-04-26 15:49 | 46.18218 | -86.45527 | 25219 ft | 227 kts | 81° |
| 2026-04-26 15:49 | 46.18481 | -86.43284 | 25220 ft | 227 kts | 81° |
| 2026-04-26 15:49 | 46.18743 | -86.41041 | 25216 ft | 227 kts | 81° |
| 2026-04-26 15:49 | 46.19005 | -86.38801 | 25215 ft | 226 kts | 81° |
| 2026-04-26 15:50 | 46.19266 | -86.36561 | 25209 ft | 226 kts | 81° |
| 2026-04-26 15:50 | 46.19526 | -86.34326 | 25209 ft | 226 kts | 81° |
| 2026-04-26 15:50 | 46.19785 | -86.32089 | 25215 ft | 226 kts | 81° |
| 2026-04-26 15:50 | 46.20044 | -86.29854 | 25215 ft | 226 kts | 81° |
| 2026-04-26 15:51 | 46.20303 | -86.27615 | 25215 ft | 226 kts | 81° |
| 2026-04-26 15:51 | 46.20561 | -86.25381 | 25215 ft | 226 kts | 81° |
| 2026-04-26 15:51 | 46.20820 | -86.23142 | 25215 ft | 225 kts | 81° |
| 2026-04-26 15:51 | 46.21076 | -86.20911 | 25214 ft | 225 kts | 81° |
| 2026-04-26 15:52 | 46.21333 | -86.18677 | 25218 ft | 225 kts | 81° |
| 2026-04-26 15:52 | 46.21589 | -86.16445 | 25222 ft | 226 kts | 81° |
| 2026-04-26 15:52 | 46.21844 | -86.14212 | 25221 ft | 225 kts | 81° |
| 2026-04-26 15:52 | 46.22013 | -86.12733 | 25221 ft | 225 kts | 81° |
| 2026-04-26 15:53 | 46.22354 | -86.09747 | 25221 ft | 225 kts | 81° |
| 2026-04-26 15:53 | 46.22608 | -86.07511 | 25221 ft | 225 kts | 81° |
| 2026-04-26 15:53 | 46.22859 | -86.05307 | 25222 ft | 226 kts | 81° |
| 2026-04-26 15:53 | 46.23113 | -86.03069 | 25222 ft | 226 kts | 81° |
| 2026-04-26 15:54 | 46.23366 | -86.00835 | 25226 ft | 226 kts | 81° |
| 2026-04-26 15:54 | 46.23618 | -85.98597 | 25225 ft | 225 kts | 81° |
| 2026-04-26 15:54 | 46.23870 | -85.96370 | 25227 ft | 225 kts | 81° |
| 2026-04-26 15:54 | 46.24120 | -85.94147 | 25228 ft | 225 kts | 81° |
| 2026-04-26 15:55 | 46.24371 | -85.91917 | 25230 ft | 225 kts | 81° |
| 2026-04-26 15:55 | 46.24621 | -85.89685 | 25230 ft | 225 kts | 81° |
| 2026-04-26 15:55 | 46.24786 | -85.88212 | 25228 ft | 225 kts | 81° |
| 2026-04-26 15:55 | 46.25036 | -85.85978 | 25228 ft | 225 kts | 81° |
| 2026-04-26 15:56 | 46.25285 | -85.83748 | 25228 ft | 225 kts | 81° |
| 2026-04-26 15:56 | 46.25533 | -85.81523 | 25225 ft | 225 kts | 81° |
| 2026-04-26 15:56 | 46.25781 | -85.79294 | 25225 ft | 225 kts | 81° |
| 2026-04-26 15:56 | 46.26029 | -85.77063 | 25223 ft | 225 kts | 81° |
| 2026-04-26 15:57 | 46.26276 | -85.74835 | 25220 ft | 225 kts | 81° |
| 2026-04-26 15:57 | 46.26522 | -85.72607 | 25219 ft | 224 kts | 81° |
| 2026-04-26 15:57 | 46.26768 | -85.70380 | 25218 ft | 225 kts | 81° |
| 2026-04-26 15:57 | 46.26931 | -85.68903 | 25220 ft | 225 kts | 81° |
| 2026-04-26 15:58 | 46.27259 | -85.65919 | 25220 ft | 225 kts | 81° |
| 2026-04-26 15:58 | 46.27505 | -85.63680 | 25219 ft | 225 kts | 81° |
| 2026-04-26 15:58 | 46.27750 | -85.61447 | 25218 ft | 225 kts | 81° |
| 2026-04-26 15:58 | 46.27994 | -85.59215 | 25217 ft | 225 kts | 81° |
| 2026-04-26 15:59 | 46.28238 | -85.56983 | 25216 ft | 225 kts | 81° |
| 2026-04-26 15:59 | 46.28482 | -85.54748 | 25224 ft | 225 kts | 81° |
| 2026-04-26 15:59 | 46.28725 | -85.52509 | 25226 ft | 225 kts | 82° |
| 2026-04-26 15:59 | 46.28965 | -85.50297 | 25227 ft | 226 kts | 82° |
| 2026-04-26 16:00 | 46.29208 | -85.48056 | 25225 ft | 226 kts | 82° |
| 2026-04-26 16:00 | 46.29451 | -85.45814 | 25225 ft | 226 kts | 82° |
| 2026-04-26 16:00 | 46.29693 | -85.43574 | 25225 ft | 226 kts | 82° |
| 2026-04-26 16:00 | 46.29934 | -85.41332 | 25225 ft | 225 kts | 82° |
| 2026-04-26 16:01 | 46.30175 | -85.39092 | 25222 ft | 225 kts | 82° |
| 2026-04-26 16:01 | 46.30416 | -85.36854 | 25213 ft | 226 kts | 82° |
| 2026-04-26 16:01 | 46.30656 | -85.34611 | 25213 ft | 226 kts | 82° |
| 2026-04-26 16:01 | 46.30896 | -85.32369 | 25214 ft | 226 kts | 82° |
| 2026-04-26 16:02 | 46.31135 | -85.30128 | 25249 ft | 226 kts | 82° |
| 2026-04-26 16:02 | 46.31374 | -85.27881 | 25250 ft | 226 kts | 82° |
| 2026-04-26 16:02 | 46.31613 | -85.25637 | 25249 ft | 226 kts | 82° |
| 2026-04-26 16:02 | 46.31771 | -85.24147 | 25249 ft | 226 kts | 82° |
| 2026-04-26 16:03 | 46.32089 | -85.21146 | 25249 ft | 226 kts | 82° |
| 2026-04-26 16:03 | 46.32326 | -85.18900 | 25244 ft | 225 kts | 81° |
| 2026-04-26 16:03 | 46.32563 | -85.16659 | 25244 ft | 225 kts | 82° |
| 2026-04-26 16:03 | 46.32799 | -85.14418 | 25245 ft | 225 kts | 82° |
| 2026-04-26 16:04 | 46.33035 | -85.12175 | 25242 ft | 226 kts | 82° |
| 2026-04-26 16:04 | 46.33270 | -85.09930 | 25242 ft | 226 kts | 82° |
| 2026-04-26 16:04 | 46.33505 | -85.07690 | 25241 ft | 225 kts | 82° |
| 2026-04-26 16:04 | 46.33739 | -85.05448 | 25241 ft | 225 kts | 82° |
| 2026-04-26 16:05 | 46.33973 | -85.03202 | 25241 ft | 225 kts | 82° |
| 2026-04-26 16:05 | 46.34204 | -85.00985 | 25249 ft | 225 kts | 82° |
| 2026-04-26 16:05 | 46.34437 | -84.98740 | 25249 ft | 225 kts | 82° |
| 2026-04-26 16:05 | 46.34669 | -84.96502 | 25248 ft | 225 kts | 82° |
| 2026-04-26 16:06 | 46.34902 | -84.94258 | 25241 ft | 225 kts | 82° |
| 2026-04-26 16:06 | 46.35133 | -84.92018 | 25240 ft | 225 kts | 82° |
| 2026-04-26 16:06 | 46.35364 | -84.89775 | 25242 ft | 225 kts | 82° |
| 2026-04-26 16:06 | 46.35594 | -84.87534 | 25240 ft | 225 kts | 82° |
| 2026-04-26 16:07 | 46.35825 | -84.85293 | 25237 ft | 225 kts | 82° |
| 2026-04-26 16:07 | 46.36054 | -84.83052 | 25236 ft | 225 kts | 82° |
| 2026-04-26 16:07 | 46.36284 | -84.80809 | 25234 ft | 225 kts | 82° |
| 2026-04-26 16:07 | 46.36512 | -84.78568 | 25233 ft | 225 kts | 82° |
| 2026-04-26 16:08 | 46.36741 | -84.76337 | 25230 ft | 224 kts | 81° |
| 2026-04-26 16:08 | 46.36966 | -84.74104 | 25227 ft | 224 kts | 81° |
| 2026-04-26 16:08 | 46.37192 | -84.71872 | 25226 ft | 224 kts | 81° |
| 2026-04-26 16:08 | 46.37418 | -84.69639 | 25224 ft | 224 kts | 81° |
| 2026-04-26 16:09 | 46.37644 | -84.67409 | 25223 ft | 224 kts | 81° |
| 2026-04-26 16:09 | 46.37869 | -84.65178 | 25222 ft | 224 kts | 81° |
| 2026-04-26 16:09 | 46.38093 | -84.62951 | 25222 ft | 224 kts | 81° |
| 2026-04-26 16:09 | 46.38317 | -84.60723 | 25222 ft | 224 kts | 81° |
| 2026-04-26 16:10 | 46.38540 | -84.58494 | 25221 ft | 223 kts | 81° |
| 2026-04-26 16:10 | 46.38762 | -84.56266 | 25220 ft | 223 kts | 81° |
| 2026-04-26 16:10 | 46.38985 | -84.54047 | 25219 ft | 223 kts | 81° |
| 2026-04-26 16:10 | 46.39206 | -84.51829 | 25220 ft | 222 kts | 81° |
| 2026-04-26 16:11 | 46.39424 | -84.49634 | 25220 ft | 222 kts | 81° |
| 2026-04-26 16:11 | 46.39644 | -84.47419 | 25220 ft | 222 kts | 81° |
| 2026-04-26 16:11 | 46.39863 | -84.45205 | 25220 ft | 222 kts | 81° |
| 2026-04-26 16:11 | 46.40082 | -84.42990 | 25220 ft | 222 kts | 81° |
| 2026-04-26 16:12 | 46.40300 | -84.40776 | 25220 ft | 222 kts | 81° |
| 2026-04-26 16:12 | 46.40518 | -84.38563 | 25219 ft | 222 kts | 81° |
| 2026-04-26 16:12 | 46.40952 | -84.34138 | 25202 ft | 221 kts | 81° |
| 2026-04-26 16:13 | 46.41226 | -84.31958 | 25203 ft | 219 kts | 69° |
| 2026-04-26 16:13 | 46.41886 | -84.30010 | 25208 ft | 213 kts | 51° |
| 2026-04-26 16:13 | 46.42686 | -84.28236 | 25221 ft | 213 kts | 50° |
| 2026-04-26 16:13 | 46.43506 | -84.26460 | 25221 ft | 212 kts | 50° |
| 2026-04-26 16:14 | 46.44327 | -84.24676 | 25221 ft | 212 kts | 50° |
| 2026-04-26 16:14 | 46.45144 | -84.22888 | 25217 ft | 213 kts | 50° |
| 2026-04-26 16:14 | 46.46779 | -84.19300 | 25221 ft | 213 kts | 50° |
| 2026-04-26 16:15 | 46.47596 | -84.17507 | 25223 ft | 213 kts | 50° |
| 2026-04-26 16:15 | 46.48415 | -84.15708 | 25222 ft | 214 kts | 50° |
| 2026-04-26 16:15 | 46.49232 | -84.13911 | 25223 ft | 213 kts | 50° |
| 2026-04-26 16:16 | 46.50865 | -84.10321 | 25224 ft | 213 kts | 50° |
| 2026-04-26 16:16 | 46.51681 | -84.08523 | 25225 ft | 213 kts | 50° |
| 2026-04-26 16:16 | 46.52497 | -84.06725 | 25227 ft | 213 kts | 50° |
| 2026-04-26 16:16 | 46.53314 | -84.04924 | 25228 ft | 213 kts | 50° |
| 2026-04-26 16:17 | 46.54128 | -84.03128 | 25227 ft | 213 kts | 50° |
| 2026-04-26 16:17 | 46.54942 | -84.01330 | 25233 ft | 213 kts | 50° |
| 2026-04-26 16:17 | 46.55757 | -83.99531 | 25234 ft | 213 kts | 50° |
| 2026-04-26 16:17 | 46.56558 | -83.97759 | 25234 ft | 213 kts | 50° |
| 2026-04-26 16:18 | 46.57371 | -83.95962 | 25234 ft | 213 kts | 50° |
| 2026-04-26 16:18 | 46.58995 | -83.92365 | 25233 ft | 213 kts | 51° |
| 2026-04-26 16:19 | 46.60614 | -83.88775 | 25232 ft | 212 kts | 51° |
| 2026-04-26 16:19 | 46.61420 | -83.86986 | 25233 ft | 211 kts | 50° |
| 2026-04-26 16:19 | 46.62759 | -83.84014 | 25235 ft | 211 kts | 51° |
| 2026-04-26 16:20 | 46.63834 | -83.81623 | 25236 ft | 211 kts | 51° |
| 2026-04-26 16:20 | 46.65437 | -83.78054 | 25236 ft | 210 kts | 51° |
| 2026-04-26 16:21 | 46.67016 | -83.74537 | 25236 ft | 210 kts | 51° |
| 2026-04-26 16:21 | 46.67805 | -83.72777 | 25236 ft | 210 kts | 51° |
| 2026-04-26 16:21 | 46.68604 | -83.70993 | 25237 ft | 211 kts | 51° |
| 2026-04-26 16:21 | 46.69405 | -83.69205 | 25236 ft | 211 kts | 51° |
| 2026-04-26 16:22 | 46.70205 | -83.67417 | 25232 ft | 210 kts | 51° |
| 2026-04-26 16:22 | 46.71003 | -83.65632 | 25238 ft | 210 kts | 51° |
| 2026-04-26 16:22 | 46.71801 | -83.63846 | 25240 ft | 210 kts | 50° |
| 2026-04-26 16:22 | 46.72601 | -83.62056 | 25239 ft | 211 kts | 51° |
| 2026-04-26 16:23 | 46.73398 | -83.60268 | 25239 ft | 210 kts | 51° |
| 2026-04-26 16:23 | 46.74195 | -83.58483 | 25239 ft | 210 kts | 51° |
| 2026-04-26 16:23 | 46.74992 | -83.56695 | 25240 ft | 210 kts | 51° |
| 2026-04-26 16:23 | 46.75789 | -83.54905 | 25239 ft | 210 kts | 51° |
| 2026-04-26 16:24 | 46.76586 | -83.53113 | 25237 ft | 210 kts | 51° |
| 2026-04-26 16:24 | 46.77372 | -83.51347 | 25239 ft | 210 kts | 51° |
| 2026-04-26 16:24 | 46.78168 | -83.49557 | 25236 ft | 210 kts | 51° |
| 2026-04-26 16:24 | 46.78963 | -83.47766 | 25253 ft | 210 kts | 51° |
| 2026-04-26 16:25 | 46.79755 | -83.45983 | 25251 ft | 209 kts | 51° |
| 2026-04-26 16:25 | 46.80544 | -83.44205 | 25250 ft | 208 kts | 51° |
| 2026-04-26 16:25 | 46.81329 | -83.42435 | 25250 ft | 208 kts | 51° |
| 2026-04-26 16:25 | 46.82114 | -83.40663 | 25250 ft | 207 kts | 51° |
| 2026-04-26 16:26 | 46.82895 | -83.38900 | 25253 ft | 207 kts | 51° |
| 2026-04-26 16:26 | 46.83413 | -83.37729 | 25252 ft | 207 kts | 51° |
| 2026-04-26 16:26 | 46.84457 | -83.35369 | 25252 ft | 207 kts | 51° |
| 2026-04-26 16:26 | 46.85236 | -83.33606 | 25252 ft | 207 kts | 51° |
| 2026-04-26 16:27 | 46.86015 | -83.31844 | 25249 ft | 207 kts | 51° |
| 2026-04-26 16:27 | 46.86795 | -83.30078 | 25251 ft | 207 kts | 51° |
| 2026-04-26 16:27 | 46.87574 | -83.28312 | 25255 ft | 207 kts | 51° |
| 2026-04-26 16:27 | 46.88354 | -83.26543 | 25254 ft | 207 kts | 51° |
| 2026-04-26 16:28 | 46.89134 | -83.24772 | 25257 ft | 207 kts | 51° |
| 2026-04-26 16:28 | 46.89912 | -83.23004 | 25257 ft | 206 kts | 51° |
| 2026-04-26 16:28 | 46.90689 | -83.21238 | 25257 ft | 207 kts | 51° |
| 2026-04-26 16:28 | 46.91458 | -83.19490 | 25258 ft | 207 kts | 51° |
| 2026-04-26 16:29 | 46.92237 | -83.17719 | 25254 ft | 207 kts | 51° |
| 2026-04-26 16:29 | 46.93160 | -83.16168 | 25250 ft | 203 kts | 42° |
| 2026-04-26 16:29 | 46.93786 | -83.14279 | 25262 ft | 212 kts | 75° |
| 2026-04-26 16:29 | 46.93958 | -83.12133 | 25261 ft | 213 kts | 85° |
| 2026-04-26 16:30 | 46.94031 | -83.09964 | 25265 ft | 213 kts | 86° |